Time;durP1;ratioP1;P1;durP2;ratioP2;P2;SDS_P1;SDS_P2;PMS_P1;PMS_P2;Temp;Humidity;BMP_temperature;BMP_pressure;BME280_temperature;BME280_humidity;BME280_pressure;Samples;Min_cycle;Max_cycle;Signal;HPM_P1;HPM_P2
2021/03/14 00:01:35;;;;;;;16.73;2.35;;;5.70;99.90;;;;;;5133108;28;20537;-57
2021/03/14 00:04:01;;;;;;;12.65;2.15;;;5.70;99.90;;;;;;5132966;28;20134;-57
2021/03/14 00:06:27;;;;;;;21.27;3.00;;;5.80;99.90;;;;;;5132907;28;20054;-57
2021/03/14 00:08:52;;;;;;;13.02;1.80;;;5.80;99.90;;;;;;5132842;28;20038;-57
2021/03/14 00:11:18;;;;;;;12.43;2.92;;;5.70;99.90;;;;;;5133260;28;20043;-57
2021/03/14 00:13:44;;;;;;;17.60;2.45;;;5.70;99.90;;;;;;5133222;27;20047;-57
2021/03/14 00:16:09;;;;;;;10.48;1.92;;;5.70;99.90;;;;;;5132995;27;20043;-57
2021/03/14 00:18:40;;;;;;;21.52;2.97;;;5.70;99.90;;;;;;5135845;27;20426;-57
2021/03/14 00:21:07;;;;;;;21.60;3.53;;;5.80;99.90;;;;;;5137006;27;20119;-57
2021/03/14 00:23:33;;;;;;;23.27;2.78;;;5.90;99.90;;;;;;5136468;27;20100;-57
2021/03/14 00:25:59;;;;;;;19.25;2.78;;;5.80;99.90;;;;;;5136531;27;20469;-57
2021/03/14 00:28:25;;;;;;;18.70;2.53;;;5.80;99.90;;;;;;5136628;27;20043;-57
2021/03/14 00:30:52;;;;;;;21.80;2.55;;;5.80;99.90;;;;;;5136230;27;20496;-57
2021/03/14 00:33:18;;;;;;;21.20;2.85;;;5.80;99.90;;;;;;5136357;27;20468;-57
2021/03/14 00:35:44;;;;;;;12.13;2.15;;;5.80;99.90;;;;;;5135937;27;20404;-57
2021/03/14 00:38:09;;;;;;;24.60;2.55;;;5.80;99.90;;;;;;5135976;27;20088;-57
2021/03/14 00:40:35;;;;;;;15.60;2.35;;;5.80;99.90;;;;;;5136469;27;20039;-57
2021/03/14 00:43:04;;;;;;;16.42;2.10;;;5.80;99.90;;;;;;5136059;27;20051;-57
2021/03/14 00:45:35;;;;;;;10.45;1.80;;;5.70;99.90;;;;;;5136187;27;20047;-57
2021/03/14 00:48:02;;;;;;;18.20;2.50;;;5.70;99.90;;;;;;5136223;27;20055;-57
2021/03/14 00:50:28;;;;;;;20.75;2.90;;;5.80;99.90;;;;;;5136195;27;20043;-57
2021/03/14 00:52:54;;;;;;;23.70;3.47;;;5.70;99.90;;;;;;5136261;27;20129;-57
2021/03/14 00:55:20;;;;;;;18.75;2.65;;;5.70;99.90;;;;;;5135584;27;20146;-57
2021/03/14 00:57:46;;;;;;;16.00;2.40;;;5.70;99.90;;;;;;5136015;27;20055;-57
2021/03/14 01:00:12;;;;;;;22.50;3.05;;;5.70;99.90;;;;;;5135930;27;20039;-57
2021/03/14 01:02:38;;;;;;;15.98;3.00;;;5.70;99.90;;;;;;5135526;27;20042;-57
2021/03/14 01:05:04;;;;;;;15.13;2.35;;;5.70;99.90;;;;;;5135608;27;20401;-57
2021/03/14 01:07:30;;;;;;;14.82;2.55;;;5.70;99.90;;;;;;5135565;27;20104;-57
2021/03/14 01:09:56;;;;;;;11.68;1.98;;;5.70;99.90;;;;;;5135211;27;20038;-57
2021/03/14 01:12:21;;;;;;;17.90;3.08;;;5.70;99.90;;;;;;5135640;27;20075;-57
2021/03/14 01:14:47;;;;;;;18.60;2.63;;;5.70;99.90;;;;;;5135567;27;20055;-57
2021/03/14 01:17:13;;;;;;;15.88;2.53;;;5.70;99.90;;;;;;5135848;27;20503;-57
2021/03/14 01:19:39;;;;;;;20.02;3.00;;;5.70;99.90;;;;;;5135567;27;20499;-57
2021/03/14 01:22:04;;;;;;;17.25;2.80;;;5.70;99.90;;;;;;5135264;27;20040;-57
2021/03/14 01:24:30;;;;;;;21.40;3.08;;;5.70;99.90;;;;;;5135405;27;20039;-57
2021/03/14 01:26:57;;;;;;;20.08;2.53;;;5.70;99.90;;;;;;5135670;27;20043;-57
2021/03/14 01:29:23;;;;;;;19.58;2.70;;;5.70;99.90;;;;;;5135358;27;20437;-57
2021/03/14 01:31:49;;;;;;;14.95;2.47;;;5.70;99.90;;;;;;5135366;27;20392;-57
2021/03/14 01:34:15;;;;;;;23.90;3.70;;;5.70;99.90;;;;;;5135165;27;20043;-57
2021/03/14 01:36:40;;;;;;;30.02;3.05;;;5.70;99.90;;;;;;5135092;27;20039;-57
2021/03/14 01:39:06;;;;;;;21.02;2.72;;;5.70;99.90;;;;;;5135415;27;20063;-57
2021/03/14 01:41:32;;;;;;;17.50;2.80;;;5.70;99.90;;;;;;5134774;27;20426;-57
2021/03/14 01:43:58;;;;;;;17.65;2.80;;;5.70;99.90;;;;;;5134871;27;20047;-57
2021/03/14 01:46:26;;;;;;;17.17;2.25;;;5.80;99.90;;;;;;5135100;27;20043;-57
2021/03/14 01:48:52;;;;;;;18.42;2.80;;;5.80;99.90;;;;;;5134957;27;20138;-57
2021/03/14 01:51:18;;;;;;;16.38;2.40;;;5.80;99.90;;;;;;5134982;27;20092;-57
2021/03/14 01:53:43;;;;;;;23.73;4.80;;;5.70;99.90;;;;;;5135000;27;20055;-57
2021/03/14 01:56:09;;;;;;;21.23;3.50;;;5.70;99.90;;;;;;5134376;27;20047;-57
2021/03/14 01:58:36;;;;;;;26.02;2.75;;;5.70;99.90;;;;;;5134470;27;20046;-57
2021/03/14 02:01:02;;;;;;;18.67;2.80;;;5.70;99.90;;;;;;5133629;27;20095;-57
2021/03/14 02:03:28;;;;;;;20.70;2.80;;;5.70;99.90;;;;;;5134660;27;20043;-57
2021/03/14 02:05:54;;;;;;;19.52;3.42;;;5.70;99.90;;;;;;5134522;27;20049;-58
2021/03/14 02:08:21;;;;;;;23.50;3.60;;;5.70;99.90;;;;;;5133033;27;20149;-57
2021/03/14 02:10:50;;;;;;;20.23;2.65;;;5.60;99.90;;;;;;5134455;27;20492;-57
2021/03/14 02:13:34;;;;;;;24.02;2.92;;;5.70;99.90;;;;;;5134706;27;20143;-57
2021/03/14 02:16:08;;;;;;;21.83;3.03;;;5.70;99.90;;;;;;5134314;27;20629;-57
2021/03/14 02:18:37;;;;;;;20.02;2.70;;;5.70;99.90;;;;;;5134377;27;20047;-57
2021/03/14 02:21:03;;;;;;;25.35;3.05;;;5.70;99.90;;;;;;5134284;27;20050;-57
2021/03/14 02:23:37;;;;;;;26.52;3.95;;;5.70;99.90;;;;;;5134177;27;20039;-57
2021/03/14 02:26:20;;;;;;;15.20;3.50;;;5.70;99.90;;;;;;5134384;27;20043;-57
2021/03/14 02:28:47;;;;;;;18.38;2.90;;;5.70;99.90;;;;;;5134398;27;20145;-57
2021/03/14 02:31:16;;;;;;;19.95;2.53;;;5.70;99.90;;;;;;5134128;27;20041;-57
2021/03/14 02:33:43;;;;;;;17.88;3.25;;;5.60;99.90;;;;;;5134021;27;20039;-57
2021/03/14 02:36:11;;;;;;;20.33;3.35;;;5.70;99.90;;;;;;5133824;27;20446;-57
2021/03/14 02:38:41;;;;;;;15.13;3.08;;;5.60;99.90;;;;;;5134151;27;20049;-57
2021/03/14 02:41:08;;;;;;;30.38;3.45;;;5.70;99.90;;;;;;5132000;27;20501;-57
2021/03/14 02:43:35;;;;;;;18.50;2.47;;;5.60;99.90;;;;;;5133953;27;20421;-57
2021/03/14 02:46:02;;;;;;;15.05;2.45;;;5.60;99.90;;;;;;5133655;27;20496;-57
2021/03/14 02:48:28;;;;;;;24.88;3.28;;;5.70;99.90;;;;;;5133919;27;20040;-57
2021/03/14 02:50:57;;;;;;;17.20;2.78;;;5.60;99.90;;;;;;5133535;27;20400;-57
2021/03/14 02:53:23;;;;;;;;;;;5.60;99.90;;;;;;5134401;27;20042;-57
2021/03/14 02:55:51;;;;;;;16.65;3.53;;;5.60;99.90;;;;;;5133440;27;19919;-57
2021/03/14 02:58:18;;;;;;;20.30;2.95;;;5.60;99.90;;;;;;5133685;27;20396;-57
2021/03/14 03:00:43;;;;;;;13.63;3.20;;;5.60;99.90;;;;;;5133441;27;20046;-57
2021/03/14 03:03:10;;;;;;;24.13;3.90;;;5.60;99.90;;;;;;5133307;28;20043;-57
2021/03/14 03:05:36;;;;;;;18.50;2.83;;;5.60;99.90;;;;;;5133678;27;20051;-57
2021/03/14 03:08:03;;;;;;;25.05;3.40;;;5.60;99.90;;;;;;5133432;27;20039;-57
2021/03/14 03:10:50;;;;;;;21.52;3.67;;;5.60;99.90;;;;;;5133526;27;20035;-57
2021/03/14 03:13:16;;;;;;;14.73;2.80;;;5.50;99.90;;;;;;5133357;28;20441;-59
2021/03/14 03:15:43;;;;;;;17.35;3.90;;;5.50;99.90;;;;;;5133629;27;20048;-59
2021/03/14 03:18:10;;;;;;;17.83;3.22;;;5.50;99.90;;;;;;5133555;27;20039;-59
2021/03/14 03:20:37;;;;;;;21.08;3.50;;;5.50;99.90;;;;;;5133820;27;20039;-59
2021/03/14 03:23:03;;;;;;;19.27;3.42;;;5.50;99.90;;;;;;5133464;27;20039;-57
2021/03/14 03:25:29;;;;;;;20.65;3.20;;;5.50;99.90;;;;;;5133332;27;20047;-57
2021/03/14 03:27:55;;;;;;;19.10;3.28;;;5.40;99.90;;;;;;5132963;27;20084;-57
2021/03/14 03:30:23;;;;;;;19.50;3.35;;;5.40;99.90;;;;;;5133462;28;20040;-59
2021/03/14 03:32:49;;;;;;;17.77;3.13;;;5.40;99.90;;;;;;5133531;27;20074;-59
2021/03/14 03:35:19;;;;;;;22.48;3.47;;;5.40;99.90;;;;;;5133145;28;20131;-59
2021/03/14 03:37:46;;;;;;;17.77;2.83;;;5.30;99.90;;;;;;5133310;27;20083;-59
2021/03/14 03:40:15;;;;;;;16.58;2.53;;;5.30;99.90;;;;;;5133393;27;20126;-59
2021/03/14 03:42:50;;;;;;;21.58;3.05;;;5.30;99.90;;;;;;5133239;27;20040;-59
2021/03/14 03:45:19;;;;;;;20.48;2.72;;;5.30;99.90;;;;;;5133300;28;20095;-59
2021/03/14 03:47:45;;;;;;;19.13;4.03;;;5.30;99.90;;;;;;5133045;27;20442;-59
2021/03/14 03:50:15;;;;;;;20.00;3.85;;;5.30;99.90;;;;;;5132967;28;20092;-59
2021/03/14 03:52:43;;;;;;;11.77;3.17;;;5.20;99.90;;;;;;5134807;27;20043;-59
2021/03/14 03:55:10;;;;;;;27.10;3.95;;;5.30;99.90;;;;;;5136601;27;20097;-59
2021/03/14 03:57:38;;;;;;;23.38;2.97;;;5.30;99.90;;;;;;5137070;27;20035;-59
2021/03/14 04:00:12;;;;;;;23.05;3.35;;;5.30;99.90;;;;;;5137196;27;20039;-59
2021/03/14 04:02:38;;;;;;;25.05;3.80;;;5.30;99.90;;;;;;5136657;27;20496;-59
2021/03/14 04:05:08;;;;;;;17.73;3.60;;;5.30;99.90;;;;;;5137091;27;20047;-59
2021/03/14 04:07:45;;;;;;;17.95;3.10;;;5.30;99.90;;;;;;5137055;27;20054;-59
2021/03/14 04:10:16;;;;;;;18.02;3.88;;;5.20;99.90;;;;;;5136974;27;20043;-59
2021/03/14 04:12:43;;;;;;;24.30;4.90;;;5.20;99.90;;;;;;5137015;27;20047;-59
2021/03/14 04:15:12;;;;;;;19.05;3.70;;;5.20;99.90;;;;;;5136701;27;20050;-57
2021/03/14 04:17:39;;;;;;;20.38;3.60;;;5.20;99.90;;;;;;5136499;27;20401;-57
2021/03/14 04:20:14;;;;;;;18.30;2.88;;;5.20;99.90;;;;;;5136712;27;20047;-57
2021/03/14 04:22:44;;;;;;;20.05;3.80;;;5.10;99.90;;;;;;5136916;27;20095;-57
2021/03/14 04:25:13;;;;;;;18.40;4.30;;;5.10;99.90;;;;;;5136880;27;20047;-57
2021/03/14 04:27:40;;;;;;;18.10;3.72;;;5.10;99.90;;;;;;5136328;27;20042;-57
2021/03/14 04:30:07;;;;;;;27.63;4.63;;;5.10;99.90;;;;;;5135317;27;20027;-57
2021/03/14 04:32:34;;;;;;;14.52;3.38;;;5.10;99.90;;;;;;5136545;27;20071;-57
2021/03/14 04:35:01;;;;;;;24.10;3.47;;;5.10;99.90;;;;;;5136543;27;20080;-57
2021/03/14 04:37:32;;;;;;;19.27;3.00;;;5.10;99.90;;;;;;5136675;27;20065;-57
2021/03/14 04:40:01;;;;;;;21.02;4.15;;;5.10;99.90;;;;;;5136282;27;20122;-57
2021/03/14 04:42:30;;;;;;;25.58;3.70;;;5.00;99.90;;;;;;5136522;27;20035;-57
2021/03/14 04:44:57;;;;;;;21.83;3.15;;;5.00;99.90;;;;;;5136067;27;20046;-57
2021/03/14 04:47:22;;;;;;;18.02;3.22;;;5.10;99.90;;;;;;5136175;27;20050;-57
2021/03/14 04:49:48;;;;;;;24.50;4.40;;;5.00;99.90;;;;;;5135914;27;20039;-57
2021/03/14 04:52:19;;;;;;;25.48;4.25;;;5.00;99.90;;;;;;5135794;27;20092;-57
2021/03/14 04:54:48;;;;;;;22.35;3.78;;;5.10;99.90;;;;;;5135781;27;20031;-57
2021/03/14 04:57:18;;;;;;;14.98;4.05;;;5.10;99.90;;;;;;5135700;27;20512;-57
2021/03/14 04:59:45;;;;;;;27.65;4.00;;;5.10;99.90;;;;;;5135902;27;20495;-57
2021/03/14 05:02:13;;;;;;;16.58;3.47;;;5.10;99.90;;;;;;5136029;27;20047;-57
2021/03/14 05:04:42;;;;;;;19.35;3.25;;;5.10;99.90;;;;;;5135332;27;20046;-57
2021/03/14 05:07:11;;;;;;;21.25;3.97;;;5.00;99.90;;;;;;5135895;27;20047;-57
2021/03/14 05:09:38;;;;;;;27.67;4.07;;;5.00;99.90;;;;;;5135874;27;20462;-57
2021/03/14 05:12:05;;;;;;;32.20;4.00;;;4.90;99.90;;;;;;5135962;27;20047;-57
2021/03/14 05:14:35;;;;;;;24.25;3.90;;;5.00;99.90;;;;;;5135537;27;20043;-57
2021/03/14 05:17:02;;;;;;;21.67;4.32;;;5.00;99.90;;;;;;5135780;27;20047;-57
2021/03/14 05:19:30;;;;;;;18.23;3.78;;;4.90;99.90;;;;;;5135784;27;20043;-57
2021/03/14 05:21:57;;;;;;;15.82;3.83;;;4.90;99.90;;;;;;5117369;27;20043;-57
2021/03/14 05:24:23;;;;;;;30.02;3.90;;;4.80;99.90;;;;;;5135042;27;20073;-57
2021/03/14 05:26:49;;;;;;;21.75;3.83;;;4.80;99.90;;;;;;5135458;27;20039;-57
2021/03/14 05:29:16;;;;;;;28.00;3.95;;;4.90;99.90;;;;;;5135482;27;20043;-57
2021/03/14 05:31:42;;;;;;;26.42;4.63;;;4.90;99.90;;;;;;5135116;27;20542;-57
2021/03/14 05:34:13;;;;;;;22.33;4.25;;;5.00;99.90;;;;;;5135167;27;20047;-57
2021/03/14 05:36:39;;;;;;;22.80;4.07;;;5.00;99.90;;;;;;5135298;27;20373;-57
2021/03/14 05:39:06;;;;;;;26.25;4.43;;;5.00;99.90;;;;;;5134953;27;20044;-57
2021/03/14 05:41:34;;;;;;;25.67;3.67;;;5.00;99.90;;;;;;5135174;27;20045;-57
2021/03/14 05:44:01;;;;;;;24.02;4.00;;;4.90;99.90;;;;;;5134842;27;20396;-57
2021/03/14 05:46:28;;;;;;;26.90;4.50;;;4.90;99.90;;;;;;5135014;27;20058;-57
2021/03/14 05:48:54;;;;;;;24.35;4.05;;;5.00;99.90;;;;;;5134675;27;20480;-57
2021/03/14 05:51:29;;;;;;;25.25;3.67;;;5.00;99.90;;;;;;5134975;27;20054;-57
2021/03/14 05:53:58;;;;;;;22.05;3.58;;;5.00;99.90;;;;;;5135286;27;20047;-57
2021/03/14 05:56:24;;;;;;;19.92;4.05;;;5.00;99.90;;;;;;5134460;27;20059;-56
2021/03/14 05:58:53;;;;;;;20.60;3.72;;;5.00;99.90;;;;;;5134803;27;20039;-56
2021/03/14 06:01:23;;;;;;;21.98;4.28;;;5.00;99.90;;;;;;5134800;27;20056;-57
2021/03/14 06:03:50;;;;;;;24.50;3.25;;;5.00;99.90;;;;;;5134697;27;20039;-57
2021/03/14 06:06:16;;;;;;;24.00;3.45;;;5.00;99.90;;;;;;5134787;27;20070;-57
2021/03/14 06:08:42;;;;;;;22.92;4.07;;;4.90;99.90;;;;;;5134662;27;20039;-57
2021/03/14 06:11:11;;;;;;;22.75;3.35;;;5.00;99.90;;;;;;5134649;27;20043;-57
2021/03/14 06:13:37;;;;;;;19.33;3.67;;;4.90;99.90;;;;;;5134390;27;20435;-57
2021/03/14 06:16:03;;;;;;;16.45;3.92;;;4.90;99.90;;;;;;5132588;27;20051;-57
2021/03/14 06:18:29;;;;;;;21.52;3.40;;;4.90;99.90;;;;;;5134253;27;20046;-57
2021/03/14 06:20:55;;;;;;;17.33;4.35;;;4.90;99.90;;;;;;5134038;27;20031;-57
2021/03/14 06:23:23;;;;;;;18.13;3.50;;;4.80;99.90;;;;;;5134266;27;20043;-57
2021/03/14 06:25:54;;;;;;;17.50;3.53;;;4.90;99.90;;;;;;5134387;27;20099;-57
2021/03/14 06:28:36;;;;;;;23.60;4.40;;;5.00;99.90;;;;;;5133903;27;20488;-57
2021/03/14 06:31:18;;;;;;;24.38;3.78;;;4.90;99.90;;;;;;5134069;27;20099;-57
2021/03/14 06:33:44;;;;;;;24.02;3.70;;;4.90;99.90;;;;;;5134241;27;20043;-57
2021/03/14 06:36:20;;;;;;;21.33;4.38;;;4.90;99.90;;;;;;5134369;27;20039;-57
2021/03/14 06:38:47;;;;;;;28.77;4.25;;;4.90;99.90;;;;;;5133738;27;20383;-57
2021/03/14 06:41:20;;;;;;;23.45;4.55;;;5.00;99.90;;;;;;5134052;27;20048;-57
2021/03/14 06:43:49;;;;;;;24.45;4.57;;;5.00;99.90;;;;;;5133916;27;20586;-57
2021/03/14 06:46:22;;;;;;;14.50;3.60;;;5.00;99.90;;;;;;5133803;27;20035;-57
2021/03/14 06:49:17;;;;;;;18.83;3.22;;;5.00;99.90;;;;;;5133847;27;20046;-57
2021/03/14 06:51:48;;;;;;;19.80;3.60;;;5.00;99.90;;;;;;5133879;27;20043;-57
2021/03/14 06:54:34;;;;;;;17.15;3.70;;;5.10;99.90;;;;;;5133813;27;20043;-57
2021/03/14 06:57:11;;;;;;;31.50;4.80;;;5.10;99.90;;;;;;5133657;27;20097;-57
2021/03/14 06:59:43;;;;;;;23.58;4.18;;;5.10;99.90;;;;;;5133917;27;20126;-57
2021/03/14 07:02:13;;;;;;;21.40;4.05;;;5.20;99.90;;;;;;5133673;27;20043;-57
2021/03/14 07:04:51;;;;;;;15.75;4.18;;;5.20;99.90;;;;;;5133789;27;20054;-57
2021/03/14 07:07:18;;;;;;;18.52;3.50;;;5.20;99.90;;;;;;5134006;27;20400;-57
2021/03/14 07:09:45;;;;;;;21.88;3.78;;;5.20;99.90;;;;;;5133866;27;20067;-57
2021/03/14 07:12:16;;;;;;;23.73;4.38;;;5.30;99.90;;;;;;5133388;27;20172;-57
2021/03/14 07:14:42;;;;;;;22.25;3.22;;;5.30;99.90;;;;;;5133587;27;20511;-57
2021/03/14 07:17:07;;;;;;;20.42;4.30;;;5.40;99.90;;;;;;5133555;27;20126;-57
2021/03/14 07:19:33;;;;;;;27.55;4.25;;;5.50;99.90;;;;;;5133410;28;20116;-57
2021/03/14 07:22:02;;;;;;;15.80;3.75;;;5.60;99.90;;;;;;5133503;27;20045;-58
2021/03/14 07:24:33;;;;;;;18.30;3.22;;;5.80;99.90;;;;;;5133510;27;20126;-57
2021/03/14 07:27:01;;;;;;;15.57;3.13;;;6.00;99.90;;;;;;5133762;27;20081;-57
2021/03/14 07:29:27;;;;;;;20.17;3.38;;;6.20;99.90;;;;;;5137709;27;20075;-57
2021/03/14 07:31:55;;;;;;;21.05;4.10;;;6.50;99.90;;;;;;5137436;27;20449;-58
2021/03/14 07:34:21;;;;;;;23.30;3.78;;;6.70;99.90;;;;;;5137787;27;20396;-57
2021/03/14 07:36:47;;;;;;;16.92;3.20;;;6.90;99.90;;;;;;5137431;27;20046;-58
2021/03/14 07:39:15;;;;;;;22.25;4.05;;;7.20;99.90;;;;;;5119306;27;20039;-58
2021/03/14 07:41:43;;;;;;;17.75;3.35;;;7.40;99.90;;;;;;5137527;27;20058;-57
2021/03/14 07:44:09;;;;;;;15.82;2.90;;;7.60;99.90;;;;;;5137145;27;20473;-57
2021/03/14 07:46:36;;;;;;;18.77;2.72;;;7.80;99.90;;;;;;5137277;27;20468;-59
2021/03/14 07:49:03;;;;;;;14.52;2.88;;;8.10;99.90;;;;;;5137471;27;20071;-58
2021/03/14 07:51:31;;;;;;;20.38;2.50;;;8.30;99.90;;;;;;5137386;27;20039;-59
2021/03/14 07:54:04;;;;;;;13.00;3.08;;;8.60;99.90;;;;;;5137407;27;20088;-57
2021/03/14 07:56:36;;;;;;;18.15;3.30;;;8.70;99.90;;;;;;5136776;27;20047;-58
2021/03/14 07:59:03;;;;;;;18.60;2.58;;;8.80;99.90;;;;;;5137380;27;20047;-59
2021/03/14 08:01:34;;;;;;;17.48;3.25;;;9.00;99.90;;;;;;5137359;27;20091;-58
2021/03/14 08:04:00;;;;;;;13.05;2.75;;;8.90;99.90;;;;;;5137417;27;20039;-59
2021/03/14 08:06:44;;;;;;;11.90;2.08;;;9.10;99.90;;;;;;5136838;27;20039;-59
2021/03/14 08:09:10;;;;;;;15.90;2.60;;;9.20;99.90;;;;;;5137101;27;20043;-59
2021/03/14 08:11:36;;;;;;;15.98;3.05;;;9.40;99.90;;;;;;5137176;27;20084;-59
2021/03/14 08:14:02;;;;;;;13.75;3.20;;;9.70;99.90;;;;;;5136409;27;20038;-59
2021/03/14 08:16:28;;;;;;;15.85;2.28;;;9.90;99.90;;;;;;5136625;27;20051;-60
2021/03/14 08:18:54;;;;;;;15.38;3.38;;;9.90;99.90;;;;;;5136859;27;20043;-59
2021/03/14 08:21:20;;;;;;;16.95;2.47;;;10.00;99.90;;;;;;5136401;27;20127;-58
2021/03/14 08:23:54;;;;;;;11.05;2.50;;;10.30;99.90;;;;;;5136838;27;20126;-59
2021/03/14 08:26:20;;;;;;;15.82;2.67;;;10.40;99.90;;;;;;5136555;27;20548;-59
2021/03/14 08:28:57;;;;;;;16.15;2.53;;;10.50;99.90;;;;;;5136757;27;20069;-59
2021/03/14 08:31:42;;;;;;;11.27;2.85;;;10.70;99.90;;;;;;5136694;27;20039;-59
2021/03/14 08:34:11;;;;;;;16.67;2.53;;;10.60;99.90;;;;;;5072695;28;20056;-59
2021/03/14 08:36:42;;;;;;;7.57;1.70;;;10.90;99.80;;;;;;5072681;28;20074;-58
2021/03/14 08:39:26;;;;;;;11.93;2.15;;;10.80;99.90;;;;;;5071773;28;20445;-59
2021/03/14 08:41:58;;;;;;;9.50;2.33;;;10.70;99.50;;;;;;5072689;28;20048;-60
2021/03/14 08:44:49;;;;;;;14.30;2.63;;;10.80;99.40;;;;;;5072610;28;20076;-59
2021/03/14 08:47:15;;;;;;;;;;;10.70;99.80;;;;;;5072891;28;20049;-59
2021/03/14 08:49:49;;;;;;;8.05;2.03;;;10.80;99.90;;;;;;5072679;28;20341;-59
2021/03/14 08:52:17;;;;;;;11.63;1.90;;;11.00;99.90;;;;;;5072220;28;20540;-60
2021/03/14 08:54:45;;;;;;;8.88;2.38;;;11.20;99.40;;;;;;5072180;28;20055;-59
2021/03/14 08:57:15;;;;;;;13.10;2.15;;;10.80;98.20;;;;;;5071791;28;20048;-59
2021/03/14 08:59:50;;;;;;;11.82;2.40;;;10.80;99.20;;;;;;5072235;28;20044;-59
2021/03/14 09:02:21;;;;;;;11.93;2.55;;;10.60;98.80;;;;;;5072046;28;20106;-59
2021/03/14 09:04:48;;;;;;;9.00;1.70;;;10.40;99.70;;;;;;5072020;28;20075;-59
2021/03/14 09:07:14;;;;;;;11.65;2.20;;;10.30;99.90;;;;;;5071983;28;20406;-58
2021/03/14 09:09:41;;;;;;;7.55;1.63;;;10.60;99.90;;;;;;5071705;28;20049;-59
2021/03/14 09:12:16;;;;;;;9.32;2.00;;;10.80;99.90;;;;;;5126804;27;20057;-58
2021/03/14 09:14:43;;;;;;;9.10;2.30;;;10.30;99.60;;;;;;5132856;27;20080;-60
2021/03/14 09:17:13;;;;;;;13.52;1.98;;;9.90;99.90;;;;;;5134795;27;20488;-59
2021/03/14 09:19:51;;;;;;;7.47;2.03;;;9.70;99.90;;;;;;5134806;27;20038;-59
2021/03/14 09:22:24;;;;;;;13.68;2.75;;;9.70;99.90;;;;;;5134736;27;20492;-58
2021/03/14 09:24:51;;;;;;;9.48;1.83;;;9.60;99.90;;;;;;5135036;27;20192;-58
2021/03/14 09:27:20;;;;;;;10.63;2.33;;;9.60;99.90;;;;;;5134726;27;20074;-59
2021/03/14 09:29:53;;;;;;;11.47;1.70;;;9.60;99.90;;;;;;5134538;27;20043;-59
2021/03/14 09:32:23;;;;;;;10.32;2.13;;;9.50;99.90;;;;;;5134626;27;20039;-59
2021/03/14 09:34:50;;;;;;;9.15;1.83;;;9.50;99.90;;;;;;5134681;27;20051;-59
2021/03/14 09:37:30;;;;;;;8.40;2.03;;;9.60;99.90;;;;;;5134350;27;20035;-60
2021/03/14 09:40:26;;;;;;;8.73;2.05;;;9.50;99.90;;;;;;5134769;27;20035;-59
2021/03/14 09:43:12;;;;;;;6.50;1.90;;;9.40;99.90;;;;;;5134909;27;20055;-59
2021/03/14 09:45:38;;;;;;;15.50;2.55;;;9.20;99.90;;;;;;5134782;27;20088;-59
2021/03/14 09:48:16;;;;;;;8.50;2.00;;;9.20;99.90;;;;;;5134223;27;20123;-59
2021/03/14 09:50:50;;;;;;;12.48;1.98;;;9.20;99.90;;;;;;5134328;27;20465;-60
2021/03/14 09:53:17;;;;;;;7.57;1.70;;;9.00;99.90;;;;;;5134471;27;20039;-60
2021/03/14 09:55:48;;;;;;;12.95;2.47;;;9.20;99.90;;;;;;5133987;27;20131;-60
2021/03/14 09:58:19;;;;;;;11.98;1.77;;;9.30;99.90;;;;;;5134201;27;20053;-59
2021/03/14 10:00:47;;;;;;;7.63;2.45;;;9.40;99.90;;;;;;5134064;27;20042;-60
2021/03/14 10:03:18;;;;;;;14.20;2.00;;;9.50;99.90;;;;;;5134356;27;20043;-59
2021/03/14 10:05:47;;;;;;;13.38;1.90;;;9.40;99.90;;;;;;5134081;27;20051;-60
2021/03/14 10:08:39;;;;;;;6.75;1.73;;;9.30;99.90;;;;;;5133712;27;20130;-60
2021/03/14 10:11:06;;;;;;;11.27;1.98;;;9.50;99.90;;;;;;5131000;27;20043;-60
2021/03/14 10:13:33;;;;;;;12.48;2.47;;;9.60;99.90;;;;;;5133805;27;20043;-59
2021/03/14 10:16:02;;;;;;;11.27;1.70;;;9.70;99.90;;;;;;5133749;27;20403;-60
2021/03/14 10:18:29;;;;;;;10.43;2.03;;;9.50;99.90;;;;;;5133478;27;20480;-59
2021/03/14 10:21:13;;;;;;;13.32;3.25;;;9.20;99.90;;;;;;5132003;27;20070;-60
2021/03/14 10:23:39;;;;;;;9.77;2.30;;;9.60;99.90;;;;;;5133479;27;20496;-60
2021/03/14 10:26:09;;;;;;;7.03;1.88;;;9.80;99.90;;;;;;5133508;27;20047;-59
2021/03/14 10:28:39;;;;;;;10.20;1.98;;;10.20;99.90;;;;;;5133461;27;20488;-60
2021/03/14 10:31:07;;;;;;;9.52;1.90;;;10.50;99.90;;;;;;5133618;27;20047;-61
2021/03/14 10:33:35;;;;;;;12.15;1.83;;;10.60;99.90;;;;;;5131977;27;20058;-60
2021/03/14 10:36:07;;;;;;;8.05;1.63;;;10.60;99.00;;;;;;5133533;27;20071;-60
2021/03/14 10:38:50;;;;;;;12.75;2.38;;;10.50;99.50;;;;;;5133766;27;20049;-60
2021/03/14 10:41:23;;;;;;;11.15;1.92;;;10.50;99.70;;;;;;5133392;27;20063;-59
2021/03/14 10:43:53;;;;;;;10.32;3.60;;;10.70;99.50;;;;;;5133472;27;20043;-60
2021/03/14 10:46:42;;;;;;;8.68;1.85;;;10.60;98.20;;;;;;5133956;27;20057;-60
2021/03/14 10:49:19;;;;;;;7.68;1.73;;;10.20;98.20;;;;;;5133267;27;20051;-59
2021/03/14 10:51:49;;;;;;;8.35;1.98;;;10.30;99.40;;;;;;5133263;27;20035;-60
2021/03/14 10:54:16;;;;;;;7.00;1.45;;;10.20;98.00;;;;;;5133053;27;20043;-60
2021/03/14 10:56:45;;;;;;;11.93;3.38;;;10.00;98.50;;;;;;5133096;27;20165;-60
2021/03/14 10:59:36;;;;;;;10.85;1.85;;;10.20;98.10;;;;;;5132914;27;20117;-59
2021/03/14 11:02:21;;;;;;;10.65;1.92;;;10.20;98.80;;;;;;5132699;27;20516;-60
2021/03/14 11:04:54;;;;;;;7.80;1.70;;;10.30;98.70;;;;;;5132922;27;20477;-60
2021/03/14 11:07:30;;;;;;;8.73;1.60;;;10.50;98.20;;;;;;5131218;28;20046;-60
2021/03/14 11:10:15;;;;;;;10.27;1.63;;;10.70;98.20;;;;;;5132956;27;20452;-60
2021/03/14 11:12:47;;;;;;;6.90;2.22;;;10.40;97.70;;;;;;5132744;27;20438;-59
2021/03/14 11:15:33;;;;;;;11.10;2.15;;;10.30;98.50;;;;;;5132712;27;20099;-59
2021/03/14 11:18:04;;;;;;;15.60;2.08;;;10.20;98.30;;;;;;5132888;27;20035;-59
2021/03/14 11:20:31;;;;;;;8.73;1.30;;;10.20;98.90;;;;;;5132897;27;20426;-61
2021/03/14 11:22:59;;;;;;;4.88;1.60;;;10.40;98.80;;;;;;5132702;28;20038;-60
2021/03/14 11:25:26;;;;;;;11.83;1.77;;;10.70;98.80;;;;;;5132687;27;20068;-61
2021/03/14 11:27:52;;;;;;;9.05;1.75;;;11.00;98.40;;;;;;5132663;27;20081;-59
2021/03/14 11:30:20;;;;;;;8.57;1.80;;;11.30;98.40;;;;;;5132834;27;20043;-60
2021/03/14 11:32:46;;;;;;;6.43;2.23;;;11.20;97.70;;;;;;5132905;27;20042;-60
2021/03/14 11:35:12;;;;;;;9.68;1.95;;;11.30;96.00;;;;;;5132566;27;20043;-60
2021/03/14 11:37:39;;;;;;;10.00;1.75;;;11.50;96.30;;;;;;5132655;27;20493;-60
2021/03/14 11:40:08;;;;;;;8.65;1.90;;;11.90;96.50;;;;;;5132607;28;20401;-60
2021/03/14 11:42:34;;;;;;;;;;;12.00;95.80;;;;;;5133220;27;20153;-60
2021/03/14 11:45:02;;;;;;;13.77;2.03;;;12.00;96.20;;;;;;5133067;27;19920;-60
2021/03/14 11:47:28;;;;;;;7.83;1.67;;;12.30;94.60;;;;;;5132642;27;20051;-60
2021/03/14 11:49:54;;;;;;;8.10;1.50;;;11.80;94.60;;;;;;5132419;28;20038;-60
2021/03/14 11:52:19;;;;;;;8.80;1.90;;;11.60;94.70;;;;;;5132306;28;20084;-60
2021/03/14 11:54:45;;;;;;;9.05;2.10;;;11.20;95.30;;;;;;5132523;28;20054;-60
2021/03/14 11:57:11;;;;;;;13.25;1.75;;;11.00;96.50;;;;;;5132133;28;20078;-60
2021/03/14 11:59:38;;;;;;;13.70;2.63;;;11.30;97.20;;;;;;5132285;27;20039;-60
2021/03/14 12:02:05;;;;;;;13.02;3.17;;;11.50;96.80;;;;;;5132313;27;20108;-60
2021/03/14 12:04:31;;;;;;;9.18;2.03;;;11.70;96.50;;;;;;5132295;27;20441;-60
2021/03/14 12:06:57;;;;;;;12.10;1.75;;;11.70;96.80;;;;;;5132110;27;20127;-60
2021/03/14 12:09:22;;;;;;;11.00;1.77;;;11.20;95.90;;;;;;5132271;28;20031;-60
2021/03/14 12:11:48;;;;;;;11.18;1.70;;;11.40;96.20;;;;;;5132317;28;20118;-60
2021/03/14 12:14:14;;;;;;;10.60;1.80;;;11.30;96.80;;;;;;5132971;27;20066;-60
2021/03/14 12:16:39;;;;;;;11.52;1.80;;;11.10;96.90;;;;;;5135974;27;20047;-59
2021/03/14 12:19:05;;;;;;;17.05;2.55;;;10.90;97.40;;;;;;5135846;27;20487;-60
2021/03/14 12:21:31;;;;;;;15.52;2.00;;;10.70;97.10;;;;;;5136636;27;20089;-59
2021/03/14 12:23:57;;;;;;;8.57;2.03;;;10.60;97.60;;;;;;5135974;27;20151;-59
2021/03/14 12:26:23;;;;;;;8.18;2.28;;;11.00;96.60;;;;;;5135855;27;20035;-60
2021/03/14 12:28:48;;;;;;;10.13;1.73;;;10.90;95.60;;;;;;5135647;27;20037;-60
2021/03/14 12:31:15;;;;;;;10.38;1.58;;;10.80;95.70;;;;;;5135732;27;20067;-61
2021/03/14 12:33:41;;;;;;;8.55;1.92;;;10.50;96.00;;;;;;5135527;27;20091;-60
2021/03/14 12:36:07;;;;;;;10.48;2.05;;;10.30;95.40;;;;;;5135466;27;20118;-59
2021/03/14 12:38:33;;;;;;;13.25;2.08;;;10.20;96.30;;;;;;5135679;27;20043;-59
2021/03/14 12:40:59;;;;;;;7.72;1.90;;;10.10;96.80;;;;;;5135612;27;20039;-59
2021/03/14 12:43:26;;;;;;;10.45;2.30;;;10.00;97.30;;;;;;5135522;27;20043;-59
2021/03/14 12:45:53;;;;;;;14.55;2.28;;;9.90;97.90;;;;;;5135135;27;20492;-60
2021/03/14 12:48:19;;;;;;;5.15;1.40;;;9.80;97.80;;;;;;5135192;27;20039;-60
2021/03/14 12:50:46;;;;;;;6.22;1.90;;;9.80;97.80;;;;;;5135243;27;20088;-60
2021/03/14 12:53:12;;;;;;;14.75;2.00;;;9.80;97.80;;;;;;5135365;27;20038;-59
2021/03/14 12:55:38;;;;;;;10.35;1.50;;;10.00;98.00;;;;;;5134954;27;20051;-59